KBFM/BFM METAR and TAF weather

Enter ICAO airport designator
Station Type Date Time Source
KBFM METAR 2019/05/25 15:53 UTC NOAA

KBFM 251553Z 04006KT 10SM CLR 29/24 A3020 RMK AO2 SLP225 T02890244


Station Type Date Time Source
KBFM Decoded METAR 2019/05/25 15:53 UTC NOAA

MOBILE DOWNTOWN AIRPORT, AL, United States (KBFM) 30-38N 88-04W 20M
May 25, 2019 - 11:53 AM EDT / 2019.05.25 1553 UTC
Wind: from the NE (040 degrees) at 7 MPH (6 KT):0
Visibility: 10 mile(s):0
Sky conditions: clear
Temperature: 84.0 F (28.9 C)
Dew Point: 75.9 F (24.4 C)
Relative Humidity: 76%
Pressure (altimeter): 30.2 in. Hg (1022 hPa)
ob: KBFM 251553Z 04006KT 10SM CLR 29/24 A3020 RMK AO2 SLP225 T02890244
cycle: 16

Station Type Date Time Source
KBFM TAF 2019/05/25 13:09 UTC NOAA

TAF
AMD KBFM 251306Z 2513/2612 36004KT P6SM SCT003
TEMPO 2513/2515 36004KT P6SM BKN003
FM251500 09004KT P6SM SKC
FM251800 17007KT P6SM SKC
FM260100 VRB02KT P6SM SKC

Example: see airport list